sensor_id;sensor_type;location;lat;lon;timestamp;temperature;humidity
28530;DHT22;15737;49.760;6.632;2023-12-04T00:01:10;-0.20;99.90
28530;DHT22;15737;49.760;6.632;2023-12-04T00:03:35;-0.50;99.90
28530;DHT22;15737;49.760;6.632;2023-12-04T00:06:01;-0.60;99.90
28530;DHT22;15737;49.760;6.632;2023-12-04T00:08:26;-0.80;99.90
28530;DHT22;15737;49.760;6.632;2023-12-04T00:10:52;-0.90;99.90
28530;DHT22;15737;49.760;6.632;2023-12-04T00:13:19;-0.90;99.90
28530;DHT22;15737;49.760;6.632;2023-12-04T00:15:44;-1.00;99.90
28530;DHT22;15737;49.760;6.632;2023-12-04T00:18:10;-1.10;99.90
28530;DHT22;15737;49.760;6.632;2023-12-04T00:20:35;-1.20;99.90
28530;DHT22;15737;49.760;6.632;2023-12-04T00:23:02;-1.20;99.90
28530;DHT22;15737;49.760;6.632;2023-12-04T00:25:28;-1.30;99.90
28530;DHT22;15737;49.760;6.632;2023-12-04T00:27:53;-1.30;99.90
28530;DHT22;15737;49.760;6.632;2023-12-04T00:30:19;-1.30;99.90
28530;DHT22;15737;49.760;6.632;2023-12-04T00:32:44;-1.40;99.90
28530;DHT22;15737;49.760;6.632;2023-12-04T00:35:10;-1.40;99.90
28530;DHT22;15737;49.760;6.632;2023-12-04T00:37:35;-1.50;99.90
28530;DHT22;15737;49.760;6.632;2023-12-04T00:40:05;-1.50;99.90
28530;DHT22;15737;49.760;6.632;2023-12-04T00:42:30;-1.50;99.90
28530;DHT22;15737;49.760;6.632;2023-12-04T00:44:56;-1.50;99.90
28530;DHT22;15737;49.760;6.632;2023-12-04T00:47:22;-1.60;99.90
28530;DHT22;15737;49.760;6.632;2023-12-04T00:49:47;-1.60;99.90
28530;DHT22;15737;49.760;6.632;2023-12-04T00:52:13;-1.60;99.90
28530;DHT22;15737;49.760;6.632;2023-12-04T00:54:41;-1.60;99.90
28530;DHT22;15737;49.760;6.632;2023-12-04T00:57:08;-1.70;99.90
28530;DHT22;15737;49.760;6.632;2023-12-04T00:59:33;-1.70;99.90
28530;DHT22;15737;49.760;6.632;2023-12-04T01:01:59;-1.80;99.90
28530;DHT22;15737;49.760;6.632;2023-12-04T01:04:24;-1.80;99.90
28530;DHT22;15737;49.760;6.632;2023-12-04T01:06:50;-1.90;99.90
28530;DHT22;15737;49.760;6.632;2023-12-04T01:09:16;-1.90;99.90
28530;DHT22;15737;49.760;6.632;2023-12-04T01:11:42;-1.90;99.90
28530;DHT22;15737;49.760;6.632;2023-12-04T01:14:08;-1.90;99.90
28530;DHT22;15737;49.760;6.632;2023-12-04T01:16:33;-1.90;99.90
28530;DHT22;15737;49.760;6.632;2023-12-04T01:19:00;-1.90;99.90
28530;DHT22;15737;49.760;6.632;2023-12-04T01:21:26;-1.90;99.90
28530;DHT22;15737;49.760;6.632;2023-12-04T01:23:51;-1.90;99.90
28530;DHT22;15737;49.760;6.632;2023-12-04T01:26:17;-1.90;99.90
28530;DHT22;15737;49.760;6.632;2023-12-04T01:28:42;-1.90;99.90
28530;DHT22;15737;49.760;6.632;2023-12-04T01:31:08;-1.90;99.90
28530;DHT22;15737;49.760;6.632;2023-12-04T01:33:34;-1.90;99.90
28530;DHT22;15737;49.760;6.632;2023-12-04T01:36:01;-1.90;99.90
28530;DHT22;15737;49.760;6.632;2023-12-04T01:38:26;-1.90;99.90
28530;DHT22;15737;49.760;6.632;2023-12-04T01:40:52;-1.90;99.90
28530;DHT22;15737;49.760;6.632;2023-12-04T01:43:17;-1.90;99.90
28530;DHT22;15737;49.760;6.632;2023-12-04T01:45:43;-2.00;99.90
28530;DHT22;15737;49.760;6.632;2023-12-04T01:48:10;-2.00;99.90
28530;DHT22;15737;49.760;6.632;2023-12-04T01:50:36;-2.00;99.90
28530;DHT22;15737;49.760;6.632;2023-12-04T01:53:02;-2.00;99.90
28530;DHT22;15737;49.760;6.632;2023-12-04T01:55:29;-2.00;99.90
28530;DHT22;15737;49.760;6.632;2023-12-04T01:57:55;-2.00;99.90
28530;DHT22;15737;49.760;6.632;2023-12-04T02:00:21;-1.90;99.90
28530;DHT22;15737;49.760;6.632;2023-12-04T02:02:47;-1.90;99.90
28530;DHT22;15737;49.760;6.632;2023-12-04T02:05:13;-2.00;99.90
28530;DHT22;15737;49.760;6.632;2023-12-04T02:07:41;-2.00;99.90
28530;DHT22;15737;49.760;6.632;2023-12-04T02:10:07;-2.00;99.90
28530;DHT22;15737;49.760;6.632;2023-12-04T02:12:32;-2.00;99.90
28530;DHT22;15737;49.760;6.632;2023-12-04T02:14:58;-2.00;99.90
28530;DHT22;15737;49.760;6.632;2023-12-04T02:17:24;-2.00;99.90
28530;DHT22;15737;49.760;6.632;2023-12-04T02:19:51;-2.00;99.90
28530;DHT22;15737;49.760;6.632;2023-12-04T02:22:17;-1.90;99.90
28530;DHT22;15737;49.760;6.632;2023-12-04T02:24:44;-1.80;99.90
28530;DHT22;15737;49.760;6.632;2023-12-04T02:27:17;-1.70;99.90
28530;DHT22;15737;49.760;6.632;2023-12-04T02:30:02;-1.60;99.90
28530;DHT22;15737;49.760;6.632;2023-12-04T02:32:32;-1.50;99.90
28530;DHT22;15737;49.760;6.632;2023-12-04T02:34:59;-1.20;99.90
28530;DHT22;15737;49.760;6.632;2023-12-04T02:37:27;-0.80;99.90
28530;DHT22;15737;49.760;6.632;2023-12-04T02:39:53;-0.60;99.90
28530;DHT22;15737;49.760;6.632;2023-12-04T02:42:21;-0.40;99.90
28530;DHT22;15737;49.760;6.632;2023-12-04T02:44:46;-0.50;99.90
28530;DHT22;15737;49.760;6.632;2023-12-04T02:47:12;-0.80;99.90
28530;DHT22;15737;49.760;6.632;2023-12-04T02:49:38;-1.00;99.90
28530;DHT22;15737;49.760;6.632;2023-12-04T02:52:03;-1.20;99.90
28530;DHT22;15737;49.760;6.632;2023-12-04T02:54:29;-1.30;99.90
28530;DHT22;15737;49.760;6.632;2023-12-04T02:56:54;-1.40;99.90
28530;DHT22;15737;49.760;6.632;2023-12-04T02:59:20;-1.50;99.90
28530;DHT22;15737;49.760;6.632;2023-12-04T03:01:45;-1.50;99.90
28530;DHT22;15737;49.760;6.632;2023-12-04T03:04:11;-1.50;99.90
28530;DHT22;15737;49.760;6.632;2023-12-04T03:06:36;-1.50;99.90
28530;DHT22;15737;49.760;6.632;2023-12-04T03:09:03;-1.60;99.90
28530;DHT22;15737;49.760;6.632;2023-12-04T03:11:29;-1.60;99.90
28530;DHT22;15737;49.760;6.632;2023-12-04T03:13:54;-1.40;99.90
28530;DHT22;15737;49.760;6.632;2023-12-04T03:16:20;-1.10;99.90
28530;DHT22;15737;49.760;6.632;2023-12-04T03:18:46;-1.00;99.90
28530;DHT22;15737;49.760;6.632;2023-12-04T03:21:12;-1.00;99.90
28530;DHT22;15737;49.760;6.632;2023-12-04T03:23:37;-0.80;99.90
28530;DHT22;15737;49.760;6.632;2023-12-04T03:26:03;-0.90;99.90
28530;DHT22;15737;49.760;6.632;2023-12-04T03:28:29;-1.10;99.90
28530;DHT22;15737;49.760;6.632;2023-12-04T03:30:54;-1.10;99.90
28530;DHT22;15737;49.760;6.632;2023-12-04T03:33:20;-1.20;99.90
28530;DHT22;15737;49.760;6.632;2023-12-04T03:35:45;-1.30;99.90
28530;DHT22;15737;49.760;6.632;2023-12-04T03:38:11;-1.20;99.90
28530;DHT22;15737;49.760;6.632;2023-12-04T03:40:36;-0.90;99.90
28530;DHT22;15737;49.760;6.632;2023-12-04T03:43:02;-0.80;99.90
28530;DHT22;15737;49.760;6.632;2023-12-04T03:45:27;-0.70;99.90
28530;DHT22;15737;49.760;6.632;2023-12-04T03:47:53;-0.40;99.90
28530;DHT22;15737;49.760;6.632;2023-12-04T03:50:18;-0.30;99.90
28530;DHT22;15737;49.760;6.632;2023-12-04T03:52:44;-0.20;99.90
28530;DHT22;15737;49.760;6.632;2023-12-04T03:55:09;-0.10;99.90
28530;DHT22;15737;49.760;6.632;2023-12-04T03:57:35;0.00;99.90
28530;DHT22;15737;49.760;6.632;2023-12-04T04:00:01;-0.10;99.90
28530;DHT22;15737;49.760;6.632;2023-12-04T04:02:27;-0.10;99.90
28530;DHT22;15737;49.760;6.632;2023-12-04T04:04:53;-0.20;99.90
28530;DHT22;15737;49.760;6.632;2023-12-04T04:07:19;-0.50;99.90
28530;DHT22;15737;49.760;6.632;2023-12-04T04:09:45;-0.70;99.90
28530;DHT22;15737;49.760;6.632;2023-12-04T04:12:10;-0.70;99.90
28530;DHT22;15737;49.760;6.632;2023-12-04T04:14:36;-0.60;99.90
28530;DHT22;15737;49.760;6.632;2023-12-04T04:17:02;-0.70;99.90
28530;DHT22;15737;49.760;6.632;2023-12-04T04:19:28;-0.50;99.90
28530;DHT22;15737;49.760;6.632;2023-12-04T04:21:54;-0.40;99.90
28530;DHT22;15737;49.760;6.632;2023-12-04T04:24:20;-0.30;99.90
28530;DHT22;15737;49.760;6.632;2023-12-04T04:26:45;-0.20;99.90
28530;DHT22;15737;49.760;6.632;2023-12-04T04:29:11;-0.20;99.90
28530;DHT22;15737;49.760;6.632;2023-12-04T04:31:36;-0.30;99.90
28530;DHT22;15737;49.760;6.632;2023-12-04T04:34:02;-0.20;99.90
28530;DHT22;15737;49.760;6.632;2023-12-04T04:36:27;0.00;99.90
28530;DHT22;15737;49.760;6.632;2023-12-04T04:38:53;0.20;99.90
28530;DHT22;15737;49.760;6.632;2023-12-04T04:41:18;0.40;99.90
28530;DHT22;15737;49.760;6.632;2023-12-04T04:43:44;0.40;99.90
28530;DHT22;15737;49.760;6.632;2023-12-04T04:46:09;0.50;99.90
28530;DHT22;15737;49.760;6.632;2023-12-04T04:48:35;0.40;99.90
28530;DHT22;15737;49.760;6.632;2023-12-04T04:51:01;0.10;99.90
28530;DHT22;15737;49.760;6.632;2023-12-04T04:53:26;-0.10;99.90
28530;DHT22;15737;49.760;6.632;2023-12-04T04:55:52;0.00;99.90
28530;DHT22;15737;49.760;6.632;2023-12-04T04:58:17;0.10;99.90
28530;DHT22;15737;49.760;6.632;2023-12-04T05:00:46;0.10;99.90
28530;DHT22;15737;49.760;6.632;2023-12-04T05:03:12;0.10;99.90
28530;DHT22;15737;49.760;6.632;2023-12-04T05:05:41;0.00;99.90
28530;DHT22;15737;49.760;6.632;2023-12-04T05:08:06;-0.30;99.90
28530;DHT22;15737;49.760;6.632;2023-12-04T05:10:32;-0.40;99.90
28530;DHT22;15737;49.760;6.632;2023-12-04T05:12:58;-0.40;99.90
28530;DHT22;15737;49.760;6.632;2023-12-04T05:15:23;-0.40;99.90
28530;DHT22;15737;49.760;6.632;2023-12-04T05:17:49;-0.30;99.90
28530;DHT22;15737;49.760;6.632;2023-12-04T05:20:14;-0.40;99.90
28530;DHT22;15737;49.760;6.632;2023-12-04T05:22:40;-0.60;99.90
28530;DHT22;15737;49.760;6.632;2023-12-04T05:25:06;-0.60;99.90
28530;DHT22;15737;49.760;6.632;2023-12-04T05:27:32;-0.60;99.90
28530;DHT22;15737;49.760;6.632;2023-12-04T05:29:57;-0.50;99.90
28530;DHT22;15737;49.760;6.632;2023-12-04T05:32:23;-0.20;99.90
28530;DHT22;15737;49.760;6.632;2023-12-04T05:37:18;0.30;99.90
28530;DHT22;15737;49.760;6.632;2023-12-04T05:39:44;0.40;99.90
28530;DHT22;15737;49.760;6.632;2023-12-04T05:42:09;0.50;99.90
28530;DHT22;15737;49.760;6.632;2023-12-04T05:44:35;0.40;99.90
28530;DHT22;15737;49.760;6.632;2023-12-04T05:47:01;0.30;99.90
28530;DHT22;15737;49.760;6.632;2023-12-04T05:49:26;0.10;99.90
28530;DHT22;15737;49.760;6.632;2023-12-04T05:51:52;0.20;99.90
28530;DHT22;15737;49.760;6.632;2023-12-04T05:54:17;0.30;99.90
28530;DHT22;15737;49.760;6.632;2023-12-04T05:56:43;0.20;99.90
28530;DHT22;15737;49.760;6.632;2023-12-04T05:59:08;0.10;99.90
28530;DHT22;15737;49.760;6.632;2023-12-04T06:01:34;0.00;99.90
28530;DHT22;15737;49.760;6.632;2023-12-04T06:03:59;0.20;99.90
28530;DHT22;15737;49.760;6.632;2023-12-04T06:06:25;0.30;99.90
28530;DHT22;15737;49.760;6.632;2023-12-04T06:08:50;0.50;99.90
28530;DHT22;15737;49.760;6.632;2023-12-04T06:11:16;0.70;99.90
28530;DHT22;15737;49.760;6.632;2023-12-04T06:13:41;0.70;99.90
28530;DHT22;15737;49.760;6.632;2023-12-04T06:16:07;0.80;99.90
28530;DHT22;15737;49.760;6.632;2023-12-04T06:18:33;0.80;99.90
28530;DHT22;15737;49.760;6.632;2023-12-04T06:20:58;0.90;99.90
28530;DHT22;15737;49.760;6.632;2023-12-04T06:23:24;1.00;99.90
28530;DHT22;15737;49.760;6.632;2023-12-04T06:25:50;1.10;99.90
28530;DHT22;15737;49.760;6.632;2023-12-04T06:28:15;1.10;99.90
28530;DHT22;15737;49.760;6.632;2023-12-04T06:30:41;1.00;99.90
28530;DHT22;15737;49.760;6.632;2023-12-04T06:33:07;0.80;99.90
28530;DHT22;15737;49.760;6.632;2023-12-04T06:35:33;0.60;99.90
28530;DHT22;15737;49.760;6.632;2023-12-04T06:38:05;0.60;99.90
28530;DHT22;15737;49.760;6.632;2023-12-04T06:40:31;0.60;99.90
28530;DHT22;15737;49.760;6.632;2023-12-04T06:42:57;0.60;99.90
28530;DHT22;15737;49.760;6.632;2023-12-04T06:45:23;0.60;99.90
28530;DHT22;15737;49.760;6.632;2023-12-04T06:47:50;0.60;99.90
28530;DHT22;15737;49.760;6.632;2023-12-04T06:50:16;0.80;99.90
28530;DHT22;15737;49.760;6.632;2023-12-04T06:52:42;0.80;99.90
28530;DHT22;15737;49.760;6.632;2023-12-04T06:55:08;0.70;99.90
28530;DHT22;15737;49.760;6.632;2023-12-04T06:57:34;0.70;99.90
28530;DHT22;15737;49.760;6.632;2023-12-04T06:59:59;0.50;99.90
28530;DHT22;15737;49.760;6.632;2023-12-04T07:02:25;0.40;99.90
28530;DHT22;15737;49.760;6.632;2023-12-04T07:04:50;0.40;99.90
28530;DHT22;15737;49.760;6.632;2023-12-04T07:07:16;0.70;99.90
28530;DHT22;15737;49.760;6.632;2023-12-04T07:09:41;1.00;99.90
28530;DHT22;15737;49.760;6.632;2023-12-04T07:12:07;1.00;99.90
28530;DHT22;15737;49.760;6.632;2023-12-04T07:14:33;0.80;99.90
28530;DHT22;15737;49.760;6.632;2023-12-04T07:16:59;0.70;99.90
28530;DHT22;15737;49.760;6.632;2023-12-04T07:19:25;0.80;99.90
28530;DHT22;15737;49.760;6.632;2023-12-04T07:21:52;1.10;99.90
28530;DHT22;15737;49.760;6.632;2023-12-04T07:24:18;1.30;99.90
28530;DHT22;15737;49.760;6.632;2023-12-04T07:26:43;1.40;99.90
28530;DHT22;15737;49.760;6.632;2023-12-04T07:29:09;1.20;99.90
28530;DHT22;15737;49.760;6.632;2023-12-04T07:31:35;1.00;99.90
28530;DHT22;15737;49.760;6.632;2023-12-04T07:34:00;0.80;99.90
28530;DHT22;15737;49.760;6.632;2023-12-04T07:36:27;0.70;99.90
28530;DHT22;15737;49.760;6.632;2023-12-04T07:38:53;0.80;99.90
28530;DHT22;15737;49.760;6.632;2023-12-04T07:41:19;1.10;99.90
28530;DHT22;15737;49.760;6.632;2023-12-04T07:43:45;1.20;99.90
28530;DHT22;15737;49.760;6.632;2023-12-04T07:46:11;1.30;99.90
28530;DHT22;15737;49.760;6.632;2023-12-04T07:48:37;1.30;99.90
28530;DHT22;15737;49.760;6.632;2023-12-04T07:51:03;1.30;99.90
28530;DHT22;15737;49.760;6.632;2023-12-04T07:53:28;1.40;99.90
28530;DHT22;15737;49.760;6.632;2023-12-04T07:55:54;1.50;99.90
28530;DHT22;15737;49.760;6.632;2023-12-04T07:58:19;1.40;99.90
28530;DHT22;15737;49.760;6.632;2023-12-04T08:00:45;1.40;99.90
28530;DHT22;15737;49.760;6.632;2023-12-04T08:03:10;1.40;99.90
28530;DHT22;15737;49.760;6.632;2023-12-04T08:05:36;1.40;99.90
28530;DHT22;15737;49.760;6.632;2023-12-04T08:08:02;1.40;99.90
28530;DHT22;15737;49.760;6.632;2023-12-04T08:10:27;1.40;99.90
28530;DHT22;15737;49.760;6.632;2023-12-04T08:12:53;1.40;99.90
28530;DHT22;15737;49.760;6.632;2023-12-04T08:15:19;1.50;99.90
28530;DHT22;15737;49.760;6.632;2023-12-04T08:17:44;1.40;99.90
28530;DHT22;15737;49.760;6.632;2023-12-04T08:20:10;1.40;99.90
28530;DHT22;15737;49.760;6.632;2023-12-04T08:22:39;1.40;99.90
28530;DHT22;15737;49.760;6.632;2023-12-04T08:25:05;1.40;99.90
28530;DHT22;15737;49.760;6.632;2023-12-04T08:27:32;1.20;99.90
28530;DHT22;15737;49.760;6.632;2023-12-04T08:29:58;1.20;99.90
28530;DHT22;15737;49.760;6.632;2023-12-04T08:32:24;1.40;99.90
28530;DHT22;15737;49.760;6.632;2023-12-04T08:34:51;1.60;99.90
28530;DHT22;15737;49.760;6.632;2023-12-04T08:37:17;1.50;99.90
28530;DHT22;15737;49.760;6.632;2023-12-04T08:39:44;1.70;99.90
28530;DHT22;15737;49.760;6.632;2023-12-04T08:42:09;1.60;99.90
28530;DHT22;15737;49.760;6.632;2023-12-04T08:44:35;1.50;99.90
28530;DHT22;15737;49.760;6.632;2023-12-04T08:47:01;1.50;99.90
28530;DHT22;15737;49.760;6.632;2023-12-04T08:49:26;1.40;99.90
28530;DHT22;15737;49.760;6.632;2023-12-04T08:51:52;1.50;99.90
28530;DHT22;15737;49.760;6.632;2023-12-04T08:54:18;1.70;99.90
28530;DHT22;15737;49.760;6.632;2023-12-04T08:56:44;1.80;99.90
28530;DHT22;15737;49.760;6.632;2023-12-04T08:59:10;1.80;99.90
28530;DHT22;15737;49.760;6.632;2023-12-04T09:01:35;1.90;99.90
28530;DHT22;15737;49.760;6.632;2023-12-04T09:04:01;1.70;99.90
28530;DHT22;15737;49.760;6.632;2023-12-04T09:06:27;1.70;99.90
28530;DHT22;15737;49.760;6.632;2023-12-04T09:08:53;1.60;99.90
28530;DHT22;15737;49.760;6.632;2023-12-04T09:11:19;1.40;99.90
28530;DHT22;15737;49.760;6.632;2023-12-04T09:13:44;1.40;99.90
28530;DHT22;15737;49.760;6.632;2023-12-04T09:16:10;1.60;99.90
28530;DHT22;15737;49.760;6.632;2023-12-04T09:18:36;2.00;99.90
28530;DHT22;15737;49.760;6.632;2023-12-04T09:21:01;2.30;99.90
28530;DHT22;15737;49.760;6.632;2023-12-04T09:23:27;2.30;99.90
28530;DHT22;15737;49.760;6.632;2023-12-04T09:25:52;2.30;99.90
28530;DHT22;15737;49.760;6.632;2023-12-04T09:28:21;2.00;99.90
28530;DHT22;15737;49.760;6.632;2023-12-04T09:30:47;1.80;99.90
28530;DHT22;15737;49.760;6.632;2023-12-04T09:33:13;1.70;99.90
28530;DHT22;15737;49.760;6.632;2023-12-04T09:35:39;1.40;99.90
28530;DHT22;15737;49.760;6.632;2023-12-04T09:38:04;1.50;99.90
28530;DHT22;15737;49.760;6.632;2023-12-04T09:40:30;1.70;99.90
28530;DHT22;15737;49.760;6.632;2023-12-04T09:42:55;1.60;99.90
28530;DHT22;15737;49.760;6.632;2023-12-04T09:45:23;1.40;99.90
28530;DHT22;15737;49.760;6.632;2023-12-04T09:47:49;1.30;99.90
28530;DHT22;15737;49.760;6.632;2023-12-04T09:50:16;1.30;99.90
28530;DHT22;15737;49.760;6.632;2023-12-04T09:52:49;1.40;99.90
28530;DHT22;15737;49.760;6.632;2023-12-04T09:55:18;1.50;99.90
28530;DHT22;15737;49.760;6.632;2023-12-04T09:57:45;1.70;99.90
28530;DHT22;15737;49.760;6.632;2023-12-04T10:00:12;2.00;99.90
28530;DHT22;15737;49.760;6.632;2023-12-04T10:02:39;2.10;99.90
28530;DHT22;15737;49.760;6.632;2023-12-04T10:05:05;2.00;99.90
28530;DHT22;15737;49.760;6.632;2023-12-04T10:07:31;1.90;99.90
28530;DHT22;15737;49.760;6.632;2023-12-04T10:09:56;1.90;99.90
28530;DHT22;15737;49.760;6.632;2023-12-04T10:12:22;2.00;99.90
28530;DHT22;15737;49.760;6.632;2023-12-04T10:15:08;1.90;99.90
28530;DHT22;15737;49.760;6.632;2023-12-04T10:17:38;2.00;99.90
28530;DHT22;15737;49.760;6.632;2023-12-04T10:20:11;2.00;99.90
28530;DHT22;15737;49.760;6.632;2023-12-04T10:25:18;1.40;99.90
28530;DHT22;15737;49.760;6.632;2023-12-04T10:27:45;1.30;99.90
28530;DHT22;15737;49.760;6.632;2023-12-04T10:30:27;1.10;99.90
28530;DHT22;15737;49.760;6.632;2023-12-04T10:33:04;1.10;99.90
28530;DHT22;15737;49.760;6.632;2023-12-04T10:35:34;1.40;99.90
28530;DHT22;15737;49.760;6.632;2023-12-04T10:38:03;1.60;99.90
28530;DHT22;15737;49.760;6.632;2023-12-04T10:40:30;1.60;99.90
28530;DHT22;15737;49.760;6.632;2023-12-04T10:43:19;1.70;99.90
28530;DHT22;15737;49.760;6.632;2023-12-04T10:45:47;1.70;99.90
28530;DHT22;15737;49.760;6.632;2023-12-04T10:48:15;1.80;99.90
28530;DHT22;15737;49.760;6.632;2023-12-04T10:50:46;1.80;99.90
28530;DHT22;15737;49.760;6.632;2023-12-04T10:53:13;1.90;99.90
28530;DHT22;15737;49.760;6.632;2023-12-04T10:55:40;1.80;99.90
28530;DHT22;15737;49.760;6.632;2023-12-04T10:58:11;1.80;99.90
28530;DHT22;15737;49.760;6.632;2023-12-04T11:00:46;1.90;99.90
28530;DHT22;15737;49.760;6.632;2023-12-04T11:03:21;1.90;99.90
28530;DHT22;15737;49.760;6.632;2023-12-04T11:05:51;2.00;99.90
28530;DHT22;15737;49.760;6.632;2023-12-04T11:08:19;2.10;99.90
28530;DHT22;15737;49.760;6.632;2023-12-04T11:10:51;2.00;99.90
28530;DHT22;15737;49.760;6.632;2023-12-04T11:13:34;2.10;99.90
28530;DHT22;15737;49.760;6.632;2023-12-04T11:21:52;2.10;99.90
28530;DHT22;15737;49.760;6.632;2023-12-04T11:24:18;2.00;99.90
28530;DHT22;15737;49.760;6.632;2023-12-04T11:26:45;1.90;99.90
28530;DHT22;15737;49.760;6.632;2023-12-04T11:29:12;1.80;99.90
28530;DHT22;15737;49.760;6.632;2023-12-04T11:31:38;1.70;99.90
28530;DHT22;15737;49.760;6.632;2023-12-04T11:34:04;1.70;99.90
28530;DHT22;15737;49.760;6.632;2023-12-04T11:36:30;1.70;99.90
28530;DHT22;15737;49.760;6.632;2023-12-04T11:38:56;1.60;99.90
28530;DHT22;15737;49.760;6.632;2023-12-04T11:41:25;1.50;99.90
28530;DHT22;15737;49.760;6.632;2023-12-04T11:43:51;1.50;99.90
28530;DHT22;15737;49.760;6.632;2023-12-04T11:46:21;1.60;99.90
28530;DHT22;15737;49.760;6.632;2023-12-04T11:48:49;1.90;99.90
28530;DHT22;15737;49.760;6.632;2023-12-04T11:54:08;2.30;99.90
28530;DHT22;15737;49.760;6.632;2023-12-04T11:56:34;2.10;99.90
28530;DHT22;15737;49.760;6.632;2023-12-04T11:59:07;1.90;99.90
28530;DHT22;15737;49.760;6.632;2023-12-04T12:01:35;2.00;99.90
28530;DHT22;15737;49.760;6.632;2023-12-04T12:04:01;1.90;99.90
28530;DHT22;15737;49.760;6.632;2023-12-04T12:06:27;1.80;99.90
28530;DHT22;15737;49.760;6.632;2023-12-04T12:08:53;1.90;99.90
28530;DHT22;15737;49.760;6.632;2023-12-04T12:11:20;2.00;99.90
28530;DHT22;15737;49.760;6.632;2023-12-04T12:13:47;2.00;99.90
28530;DHT22;15737;49.760;6.632;2023-12-04T12:16:12;2.00;99.90
28530;DHT22;15737;49.760;6.632;2023-12-04T12:18:40;2.00;99.90
28530;DHT22;15737;49.760;6.632;2023-12-04T12:21:06;2.10;99.90
28530;DHT22;15737;49.760;6.632;2023-12-04T12:23:33;2.10;99.90
28530;DHT22;15737;49.760;6.632;2023-12-04T12:25:59;2.30;99.90
28530;DHT22;15737;49.760;6.632;2023-12-04T12:28:25;2.40;99.90
28530;DHT22;15737;49.760;6.632;2023-12-04T12:30:50;2.30;99.90
28530;DHT22;15737;49.760;6.632;2023-12-04T12:33:19;2.40;99.90
28530;DHT22;15737;49.760;6.632;2023-12-04T12:35:45;2.20;99.90
28530;DHT22;15737;49.760;6.632;2023-12-04T12:38:11;2.10;99.90
28530;DHT22;15737;49.760;6.632;2023-12-04T12:40:36;2.00;99.90
28530;DHT22;15737;49.760;6.632;2023-12-04T12:43:09;2.10;99.90
28530;DHT22;15737;49.760;6.632;2023-12-04T12:45:46;2.30;99.90
28530;DHT22;15737;49.760;6.632;2023-12-04T12:48:14;2.40;99.90
28530;DHT22;15737;49.760;6.632;2023-12-04T12:50:41;2.30;99.90
28530;DHT22;15737;49.760;6.632;2023-12-04T12:53:07;2.30;99.90
28530;DHT22;15737;49.760;6.632;2023-12-04T12:55:32;2.10;99.90
28530;DHT22;15737;49.760;6.632;2023-12-04T12:57:58;2.00;99.90
28530;DHT22;15737;49.760;6.632;2023-12-04T13:00:24;2.00;99.90
28530;DHT22;15737;49.760;6.632;2023-12-04T13:02:52;2.10;99.90
28530;DHT22;15737;49.760;6.632;2023-12-04T13:05:18;2.10;99.90
28530;DHT22;15737;49.760;6.632;2023-12-04T13:07:45;2.10;99.90
28530;DHT22;15737;49.760;6.632;2023-12-04T13:10:11;2.00;99.90
28530;DHT22;15737;49.760;6.632;2023-12-04T13:12:36;1.90;99.90
28530;DHT22;15737;49.760;6.632;2023-12-04T13:15:02;2.00;99.90
28530;DHT22;15737;49.760;6.632;2023-12-04T13:17:29;2.00;99.90
28530;DHT22;15737;49.760;6.632;2023-12-04T13:19:54;2.10;99.90
28530;DHT22;15737;49.760;6.632;2023-12-04T13:22:20;2.10;99.90
28530;DHT22;15737;49.760;6.632;2023-12-04T13:24:45;2.10;99.90
28530;DHT22;15737;49.760;6.632;2023-12-04T13:27:11;2.30;99.90
28530;DHT22;15737;49.760;6.632;2023-12-04T13:29:36;2.60;99.90
28530;DHT22;15737;49.760;6.632;2023-12-04T13:32:02;2.60;99.90
28530;DHT22;15737;49.760;6.632;2023-12-04T13:34:29;2.70;99.90
28530;DHT22;15737;49.760;6.632;2023-12-04T13:36:55;2.60;99.90
28530;DHT22;15737;49.760;6.632;2023-12-04T13:39:21;2.50;99.90
28530;DHT22;15737;49.760;6.632;2023-12-04T13:41:52;2.50;99.90
28530;DHT22;15737;49.760;6.632;2023-12-04T13:44:36;2.50;99.90
28530;DHT22;15737;49.760;6.632;2023-12-04T13:47:03;2.50;99.90
28530;DHT22;15737;49.760;6.632;2023-12-04T13:49:29;2.50;99.90
28530;DHT22;15737;49.760;6.632;2023-12-04T13:51:55;2.50;99.90
28530;DHT22;15737;49.760;6.632;2023-12-04T13:54:21;2.30;99.90
28530;DHT22;15737;49.760;6.632;2023-12-04T13:56:52;2.20;99.90
28530;DHT22;15737;49.760;6.632;2023-12-04T13:59:20;2.10;99.90
28530;DHT22;15737;49.760;6.632;2023-12-04T14:01:47;2.00;99.90
28530;DHT22;15737;49.760;6.632;2023-12-04T14:04:13;2.00;99.90
28530;DHT22;15737;49.760;6.632;2023-12-04T14:06:39;1.90;99.90
28530;DHT22;15737;49.760;6.632;2023-12-04T14:09:04;1.90;99.90
28530;DHT22;15737;49.760;6.632;2023-12-04T14:11:38;2.10;99.90
28530;DHT22;15737;49.760;6.632;2023-12-04T14:14:03;2.10;99.90
28530;DHT22;15737;49.760;6.632;2023-12-04T14:16:30;2.10;99.90
28530;DHT22;15737;49.760;6.632;2023-12-04T14:18:55;2.20;99.90
28530;DHT22;15737;49.760;6.632;2023-12-04T14:21:21;2.40;99.90
28530;DHT22;15737;49.760;6.632;2023-12-04T14:23:46;2.50;99.90
28530;DHT22;15737;49.760;6.632;2023-12-04T14:26:12;2.60;99.90
28530;DHT22;15737;49.760;6.632;2023-12-04T14:28:37;2.50;99.90
28530;DHT22;15737;49.760;6.632;2023-12-04T14:31:03;2.70;99.90
28530;DHT22;15737;49.760;6.632;2023-12-04T14:33:30;2.50;99.90
28530;DHT22;15737;49.760;6.632;2023-12-04T14:35:55;2.40;99.90
28530;DHT22;15737;49.760;6.632;2023-12-04T14:38:21;2.50;99.90
28530;DHT22;15737;49.760;6.632;2023-12-04T14:40:50;2.50;99.90
28530;DHT22;15737;49.760;6.632;2023-12-04T14:43:16;2.50;99.90
28530;DHT22;15737;49.760;6.632;2023-12-04T14:45:41;2.60;99.90
28530;DHT22;15737;49.760;6.632;2023-12-04T14:48:07;2.70;99.90
28530;DHT22;15737;49.760;6.632;2023-12-04T14:50:33;2.70;99.90
28530;DHT22;15737;49.760;6.632;2023-12-04T14:53:01;2.70;99.90
28530;DHT22;15737;49.760;6.632;2023-12-04T14:55:40;2.80;99.90
28530;DHT22;15737;49.760;6.632;2023-12-04T14:58:24;2.80;99.90
28530;DHT22;15737;49.760;6.632;2023-12-04T15:01:08;2.80;99.90
28530;DHT22;15737;49.760;6.632;2023-12-04T15:04:12;2.60;99.90
28530;DHT22;15737;49.760;6.632;2023-12-04T15:06:57;2.50;99.90
28530;DHT22;15737;49.760;6.632;2023-12-04T15:09:55;2.50;99.90
28530;DHT22;15737;49.760;6.632;2023-12-04T15:12:39;2.40;99.90
28530;DHT22;15737;49.760;6.632;2023-12-04T15:15:36;2.30;99.90
28530;DHT22;15737;49.760;6.632;2023-12-04T15:18:20;2.30;99.90
28530;DHT22;15737;49.760;6.632;2023-12-04T15:20:59;2.40;99.90
28530;DHT22;15737;49.760;6.632;2023-12-04T15:23:25;2.40;99.90
28530;DHT22;15737;49.760;6.632;2023-12-04T15:25:50;2.40;99.90
28530;DHT22;15737;49.760;6.632;2023-12-04T15:28:16;2.40;99.90
28530;DHT22;15737;49.760;6.632;2023-12-04T15:30:41;2.60;99.90
28530;DHT22;15737;49.760;6.632;2023-12-04T15:33:07;2.50;99.90
28530;DHT22;15737;49.760;6.632;2023-12-04T15:35:33;2.50;99.90
28530;DHT22;15737;49.760;6.632;2023-12-04T15:37:58;2.50;99.90
28530;DHT22;15737;49.760;6.632;2023-12-04T15:40:24;2.50;99.90
28530;DHT22;15737;49.760;6.632;2023-12-04T15:42:49;2.40;99.90
28530;DHT22;15737;49.760;6.632;2023-12-04T15:45:15;2.20;99.90
28530;DHT22;15737;49.760;6.632;2023-12-04T15:47:40;2.10;99.90
28530;DHT22;15737;49.760;6.632;2023-12-04T15:50:06;2.10;99.90
28530;DHT22;15737;49.760;6.632;2023-12-04T15:52:33;2.10;99.90